sensor_id;sensor_type;location;lat;lon;timestamp;P1;durP1;ratioP1;P2;durP2;ratioP2
70138;SDS011;57507;43.056;0.150;2023-07-30T00:00:05;0.90;;;0.80;;
70138;SDS011;57507;43.056;0.150;2023-07-30T00:02:31;1.48;;;0.75;;
70138;SDS011;57507;43.056;0.150;2023-07-30T00:04:57;1.48;;;0.60;;
70138;SDS011;57507;43.056;0.150;2023-07-30T00:07:23;2.00;;;0.65;;
70138;SDS011;57507;43.056;0.150;2023-07-30T00:09:49;0.93;;;0.80;;
70138;SDS011;57507;43.056;0.150;2023-07-30T00:12:15;0.60;;;0.60;;
70138;SDS011;57507;43.056;0.150;2023-07-30T00:14:41;0.88;;;0.70;;
70138;SDS011;57507;43.056;0.150;2023-07-30T00:17:08;1.08;;;0.70;;
70138;SDS011;57507;43.056;0.150;2023-07-30T00:19:34;1.02;;;0.60;;
70138;SDS011;57507;43.056;0.150;2023-07-30T00:22:00;2.65;;;0.75;;
70138;SDS011;57507;43.056;0.150;2023-07-30T00:24:26;1.83;;;0.60;;
70138;SDS011;57507;43.056;0.150;2023-07-30T00:26:55;0.65;;;0.60;;
70138;SDS011;57507;43.056;0.150;2023-07-30T00:29:21;1.13;;;0.57;;
70138;SDS011;57507;43.056;0.150;2023-07-30T00:31:47;1.48;;;0.60;;
70138;SDS011;57507;43.056;0.150;2023-07-30T00:34:13;1.58;;;0.63;;
70138;SDS011;57507;43.056;0.150;2023-07-30T00:36:39;0.88;;;0.70;;
70138;SDS011;57507;43.056;0.150;2023-07-30T00:39:06;0.45;;;0.40;;
70138;SDS011;57507;43.056;0.150;2023-07-30T00:41:32;1.48;;;0.52;;
70138;SDS011;57507;43.056;0.150;2023-07-30T00:43:58;0.60;;;0.60;;
70138;SDS011;57507;43.056;0.150;2023-07-30T00:46:24;0.77;;;0.70;;
70138;SDS011;57507;43.056;0.150;2023-07-30T00:48:50;0.55;;;0.55;;
70138;SDS011;57507;43.056;0.150;2023-07-30T00:51:16;1.60;;;0.52;;
70138;SDS011;57507;43.056;0.150;2023-07-30T00:53:42;0.88;;;0.52;;
70138;SDS011;57507;43.056;0.150;2023-07-30T00:56:08;3.03;;;0.47;;
70138;SDS011;57507;43.056;0.150;2023-07-30T00:58:34;0.43;;;0.43;;
70138;SDS011;57507;43.056;0.150;2023-07-30T01:01:01;0.70;;;0.50;;
70138;SDS011;57507;43.056;0.150;2023-07-30T01:03:27;0.73;;;0.50;;
70138;SDS011;57507;43.056;0.150;2023-07-30T01:05:53;0.38;;;0.38;;
70138;SDS011;57507;43.056;0.150;2023-07-30T01:08:20;1.48;;;0.50;;
70138;SDS011;57507;43.056;0.150;2023-07-30T01:10:46;0.32;;;0.30;;
70138;SDS011;57507;43.056;0.150;2023-07-30T01:13:12;0.77;;;0.25;;
70138;SDS011;57507;43.056;0.150;2023-07-30T01:15:39;1.58;;;0.40;;
70138;SDS011;57507;43.056;0.150;2023-07-30T01:18:08;0.50;;;0.38;;
70138;SDS011;57507;43.056;0.150;2023-07-30T01:20:34;0.40;;;0.40;;
70138;SDS011;57507;43.056;0.150;2023-07-30T01:23:09;0.40;;;0.40;;
70138;SDS011;57507;43.056;0.150;2023-07-30T01:25:36;0.50;;;0.40;;
70138;SDS011;57507;43.056;0.150;2023-07-30T01:28:02;0.88;;;0.47;;
70138;SDS011;57507;43.056;0.150;2023-07-30T01:30:32;0.75;;;0.40;;
70138;SDS011;57507;43.056;0.150;2023-07-30T01:32:59;1.50;;;0.70;;
70138;SDS011;57507;43.056;0.150;2023-07-30T01:35:26;0.50;;;0.40;;
70138;SDS011;57507;43.056;0.150;2023-07-30T01:37:59;0.40;;;0.40;;
70138;SDS011;57507;43.056;0.150;2023-07-30T01:40:28;0.32;;;0.30;;
70138;SDS011;57507;43.056;0.150;2023-07-30T01:42:55;1.08;;;0.40;;
70138;SDS011;57507;43.056;0.150;2023-07-30T01:45:24;0.93;;;0.30;;
70138;SDS011;57507;43.056;0.150;2023-07-30T01:47:50;0.52;;;0.40;;
70138;SDS011;57507;43.056;0.150;2023-07-30T01:50:16;0.25;;;0.20;;
70138;SDS011;57507;43.056;0.150;2023-07-30T01:52:46;0.80;;;0.50;;
70138;SDS011;57507;43.056;0.150;2023-07-30T01:55:12;0.55;;;0.30;;
70138;SDS011;57507;43.056;0.150;2023-07-30T01:57:41;1.45;;;0.30;;
70138;SDS011;57507;43.056;0.150;2023-07-30T02:00:10;1.92;;;0.30;;
70138;SDS011;57507;43.056;0.150;2023-07-30T02:02:36;1.40;;;0.40;;
70138;SDS011;57507;43.056;0.150;2023-07-30T02:05:02;0.75;;;0.40;;
70138;SDS011;57507;43.056;0.150;2023-07-30T02:07:28;0.75;;;0.47;;
70138;SDS011;57507;43.056;0.150;2023-07-30T02:09:54;0.45;;;0.40;;
70138;SDS011;57507;43.056;0.150;2023-07-30T02:12:20;1.50;;;0.50;;
70138;SDS011;57507;43.056;0.150;2023-07-30T02:14:46;1.85;;;0.50;;
70138;SDS011;57507;43.056;0.150;2023-07-30T02:17:13;1.13;;;0.50;;
70138;SDS011;57507;43.056;0.150;2023-07-30T02:19:39;0.57;;;0.43;;
70138;SDS011;57507;43.056;0.150;2023-07-30T02:22:05;0.70;;;0.28;;
70138;SDS011;57507;43.056;0.150;2023-07-30T02:24:34;0.40;;;0.38;;
70138;SDS011;57507;43.056;0.150;2023-07-30T02:27:03;0.30;;;0.30;;
70138;SDS011;57507;43.056;0.150;2023-07-30T02:29:29;0.35;;;0.35;;
70138;SDS011;57507;43.056;0.150;2023-07-30T02:31:56;0.88;;;0.35;;
70138;SDS011;57507;43.056;0.150;2023-07-30T02:34:24;0.75;;;0.38;;
70138;SDS011;57507;43.056;0.150;2023-07-30T02:36:50;0.40;;;0.40;;
70138;SDS011;57507;43.056;0.150;2023-07-30T02:39:16;0.50;;;0.35;;
70138;SDS011;57507;43.056;0.150;2023-07-30T02:41:43;0.63;;;0.40;;
70138;SDS011;57507;43.056;0.150;2023-07-30T02:44:12;0.40;;;0.40;;
70138;SDS011;57507;43.056;0.150;2023-07-30T02:46:41;0.63;;;0.30;;
70138;SDS011;57507;43.056;0.150;2023-07-30T02:49:10;2.17;;;0.47;;
70138;SDS011;57507;43.056;0.150;2023-07-30T02:51:36;0.55;;;0.40;;
70138;SDS011;57507;43.056;0.150;2023-07-30T02:54:07;0.80;;;0.50;;
70138;SDS011;57507;43.056;0.150;2023-07-30T02:56:34;1.58;;;0.50;;
70138;SDS011;57507;43.056;0.150;2023-07-30T02:59:00;3.15;;;0.57;;
70138;SDS011;57507;43.056;0.150;2023-07-30T03:01:26;0.60;;;0.32;;
70138;SDS011;57507;43.056;0.150;2023-07-30T03:03:52;1.35;;;0.32;;
70138;SDS011;57507;43.056;0.150;2023-07-30T03:06:18;0.82;;;0.47;;
70138;SDS011;57507;43.056;0.150;2023-07-30T03:08:53;0.47;;;0.32;;
70138;SDS011;57507;43.056;0.150;2023-07-30T03:11:19;2.33;;;0.50;;
70138;SDS011;57507;43.056;0.150;2023-07-30T03:13:45;1.27;;;0.40;;
70138;SDS011;57507;43.056;0.150;2023-07-30T03:16:11;1.20;;;0.30;;
70138;SDS011;57507;43.056;0.150;2023-07-30T03:18:37;0.63;;;0.35;;
70138;SDS011;57507;43.056;0.150;2023-07-30T03:21:04;1.08;;;0.30;;
70138;SDS011;57507;43.056;0.150;2023-07-30T03:23:30;0.95;;;0.38;;
70138;SDS011;57507;43.056;0.150;2023-07-30T03:25:57;0.93;;;0.40;;
70138;SDS011;57507;43.056;0.150;2023-07-30T03:28:25;0.68;;;0.40;;
70138;SDS011;57507;43.056;0.150;2023-07-30T03:30:54;0.40;;;0.40;;
70138;SDS011;57507;43.056;0.150;2023-07-30T03:33:23;1.00;;;0.40;;
70138;SDS011;57507;43.056;0.150;2023-07-30T03:35:49;1.17;;;0.40;;
70138;SDS011;57507;43.056;0.150;2023-07-30T03:38:15;0.43;;;0.35;;
70138;SDS011;57507;43.056;0.150;2023-07-30T03:40:44;1.75;;;0.40;;
70138;SDS011;57507;43.056;0.150;2023-07-30T03:43:13;0.43;;;0.32;;
70138;SDS011;57507;43.056;0.150;2023-07-30T03:45:39;0.75;;;0.30;;
70138;SDS011;57507;43.056;0.150;2023-07-30T03:48:05;0.52;;;0.40;;
70138;SDS011;57507;43.056;0.150;2023-07-30T03:50:31;1.42;;;0.50;;
70138;SDS011;57507;43.056;0.150;2023-07-30T03:52:57;0.32;;;0.30;;
70138;SDS011;57507;43.056;0.150;2023-07-30T03:55:24;1.50;;;0.30;;
70138;SDS011;57507;43.056;0.150;2023-07-30T03:57:50;2.13;;;0.50;;
70138;SDS011;57507;43.056;0.150;2023-07-30T04:00:16;0.40;;;0.40;;
70138;SDS011;57507;43.056;0.150;2023-07-30T04:02:45;0.60;;;0.43;;
70138;SDS011;57507;43.056;0.150;2023-07-30T04:05:11;1.00;;;0.40;;
70138;SDS011;57507;43.056;0.150;2023-07-30T04:07:37;0.55;;;0.30;;
70138;SDS011;57507;43.056;0.150;2023-07-30T04:10:03;0.30;;;0.25;;
70138;SDS011;57507;43.056;0.150;2023-07-30T04:12:29;2.38;;;0.40;;
70138;SDS011;57507;43.056;0.150;2023-07-30T04:14:55;1.10;;;0.50;;
70138;SDS011;57507;43.056;0.150;2023-07-30T04:17:21;0.57;;;0.35;;
70138;SDS011;57507;43.056;0.150;2023-07-30T04:19:47;0.40;;;0.40;;
70138;SDS011;57507;43.056;0.150;2023-07-30T04:22:16;1.10;;;0.30;;
70138;SDS011;57507;43.056;0.150;2023-07-30T04:24:42;0.98;;;0.30;;
70138;SDS011;57507;43.056;0.150;2023-07-30T04:27:08;1.27;;;0.52;;
70138;SDS011;57507;43.056;0.150;2023-07-30T04:29:34;0.63;;;0.40;;
70138;SDS011;57507;43.056;0.150;2023-07-30T04:32:00;0.75;;;0.40;;
70138;SDS011;57507;43.056;0.150;2023-07-30T04:34:26;1.33;;;0.50;;
70138;SDS011;57507;43.056;0.150;2023-07-30T04:36:52;1.65;;;0.40;;
70138;SDS011;57507;43.056;0.150;2023-07-30T04:39:18;1.02;;;0.50;;
70138;SDS011;57507;43.056;0.150;2023-07-30T04:41:45;0.52;;;0.40;;
70138;SDS011;57507;43.056;0.150;2023-07-30T04:44:11;0.70;;;0.30;;
70138;SDS011;57507;43.056;0.150;2023-07-30T04:46:37;1.30;;;0.47;;
70138;SDS011;57507;43.056;0.150;2023-07-30T04:49:03;0.73;;;0.40;;
70138;SDS011;57507;43.056;0.150;2023-07-30T04:51:29;0.52;;;0.40;;
70138;SDS011;57507;43.056;0.150;2023-07-30T04:53:55;0.70;;;0.50;;
70138;SDS011;57507;43.056;0.150;2023-07-30T04:56:21;0.50;;;0.50;;
70138;SDS011;57507;43.056;0.150;2023-07-30T04:58:47;0.30;;;0.30;;
70138;SDS011;57507;43.056;0.150;2023-07-30T05:01:13;1.15;;;0.50;;
70138;SDS011;57507;43.056;0.150;2023-07-30T05:03:40;1.33;;;0.43;;
70138;SDS011;57507;43.056;0.150;2023-07-30T05:06:06;1.02;;;0.38;;
70138;SDS011;57507;43.056;0.150;2023-07-30T05:08:32;1.48;;;0.32;;
70138;SDS011;57507;43.056;0.150;2023-07-30T05:10:58;1.05;;;0.43;;
70138;SDS011;57507;43.056;0.150;2023-07-30T05:13:24;0.68;;;0.40;;
70138;SDS011;57507;43.056;0.150;2023-07-30T05:15:50;1.15;;;0.40;;
70138;SDS011;57507;43.056;0.150;2023-07-30T05:18:16;1.40;;;0.60;;
70138;SDS011;57507;43.056;0.150;2023-07-30T05:20:42;0.90;;;0.40;;
70138;SDS011;57507;43.056;0.150;2023-07-30T05:23:08;0.45;;;0.45;;
70138;SDS011;57507;43.056;0.150;2023-07-30T05:25:34;0.38;;;0.38;;
70138;SDS011;57507;43.056;0.150;2023-07-30T05:28:00;0.40;;;0.40;;
70138;SDS011;57507;43.056;0.150;2023-07-30T05:30:26;0.68;;;0.40;;
70138;SDS011;57507;43.056;0.150;2023-07-30T05:32:52;0.47;;;0.40;;
70138;SDS011;57507;43.056;0.150;2023-07-30T05:35:19;1.10;;;0.55;;
70138;SDS011;57507;43.056;0.150;2023-07-30T05:37:45;1.70;;;0.50;;
70138;SDS011;57507;43.056;0.150;2023-07-30T05:40:11;1.00;;;0.40;;
70138;SDS011;57507;43.056;0.150;2023-07-30T05:42:37;1.40;;;0.40;;
70138;SDS011;57507;43.056;0.150;2023-07-30T05:45:03;0.55;;;0.32;;
70138;SDS011;57507;43.056;0.150;2023-07-30T05:47:29;0.40;;;0.30;;
70138;SDS011;57507;43.056;0.150;2023-07-30T05:49:55;0.60;;;0.50;;
70138;SDS011;57507;43.056;0.150;2023-07-30T05:52:21;0.60;;;0.38;;
70138;SDS011;57507;43.056;0.150;2023-07-30T05:54:47;1.25;;;0.38;;
70138;SDS011;57507;43.056;0.150;2023-07-30T05:57:13;1.30;;;0.60;;
70138;SDS011;57507;43.056;0.150;2023-07-30T05:59:39;1.20;;;0.60;;
70138;SDS011;57507;43.056;0.150;2023-07-30T06:02:05;0.80;;;0.40;;
70138;SDS011;57507;43.056;0.150;2023-07-30T06:04:31;0.85;;;0.50;;
70138;SDS011;57507;43.056;0.150;2023-07-30T06:06:59;1.27;;;0.30;;
70138;SDS011;57507;43.056;0.150;2023-07-30T06:09:25;0.80;;;0.50;;
70138;SDS011;57507;43.056;0.150;2023-07-30T06:11:51;0.75;;;0.32;;
70138;SDS011;57507;43.056;0.150;2023-07-30T06:14:18;0.73;;;0.50;;
70138;SDS011;57507;43.056;0.150;2023-07-30T06:16:44;0.43;;;0.43;;
70138;SDS011;57507;43.056;0.150;2023-07-30T06:19:10;0.52;;;0.50;;
70138;SDS011;57507;43.056;0.150;2023-07-30T06:21:36;0.95;;;0.40;;
70138;SDS011;57507;43.056;0.150;2023-07-30T06:24:02;0.73;;;0.50;;
70138;SDS011;57507;43.056;0.150;2023-07-30T06:26:28;0.70;;;0.50;;
70138;SDS011;57507;43.056;0.150;2023-07-30T06:28:54;1.08;;;0.73;;
70138;SDS011;57507;43.056;0.150;2023-07-30T06:31:20;0.98;;;0.40;;
70138;SDS011;57507;43.056;0.150;2023-07-30T06:33:46;0.40;;;0.40;;
70138;SDS011;57507;43.056;0.150;2023-07-30T06:36:12;0.60;;;0.55;;
70138;SDS011;57507;43.056;0.150;2023-07-30T06:38:38;1.33;;;0.43;;
70138;SDS011;57507;43.056;0.150;2023-07-30T06:41:04;0.60;;;0.40;;
70138;SDS011;57507;43.056;0.150;2023-07-30T06:43:30;1.70;;;0.43;;
70138;SDS011;57507;43.056;0.150;2023-07-30T06:45:57;1.27;;;0.40;;
70138;SDS011;57507;43.056;0.150;2023-07-30T06:48:23;0.70;;;0.47;;
70138;SDS011;57507;43.056;0.150;2023-07-30T06:50:49;0.65;;;0.65;;
70138;SDS011;57507;43.056;0.150;2023-07-30T06:53:15;0.40;;;0.40;;
70138;SDS011;57507;43.056;0.150;2023-07-30T06:55:41;0.68;;;0.55;;
70138;SDS011;57507;43.056;0.150;2023-07-30T06:58:07;0.88;;;0.45;;
70138;SDS011;57507;43.056;0.150;2023-07-30T07:00:33;0.90;;;0.50;;
70138;SDS011;57507;43.056;0.150;2023-07-30T07:02:59;0.50;;;0.38;;
70138;SDS011;57507;43.056;0.150;2023-07-30T07:05:25;1.15;;;0.40;;
70138;SDS011;57507;43.056;0.150;2023-07-30T07:07:51;0.80;;;0.50;;
70138;SDS011;57507;43.056;0.150;2023-07-30T07:10:17;0.80;;;0.50;;
70138;SDS011;57507;43.056;0.150;2023-07-30T07:12:43;0.57;;;0.50;;
70138;SDS011;57507;43.056;0.150;2023-07-30T07:15:09;1.05;;;0.40;;
70138;SDS011;57507;43.056;0.150;2023-07-30T07:17:35;1.20;;;0.38;;
70138;SDS011;57507;43.056;0.150;2023-07-30T07:20:01;1.17;;;0.32;;
70138;SDS011;57507;43.056;0.150;2023-07-30T07:22:29;0.40;;;0.40;;
70138;SDS011;57507;43.056;0.150;2023-07-30T07:24:56;0.68;;;0.28;;
70138;SDS011;57507;43.056;0.150;2023-07-30T07:27:22;0.60;;;0.40;;
70138;SDS011;57507;43.056;0.150;2023-07-30T07:29:49;0.80;;;0.40;;
70138;SDS011;57507;43.056;0.150;2023-07-30T07:32:15;1.38;;;0.40;;
70138;SDS011;57507;43.056;0.150;2023-07-30T07:34:44;0.38;;;0.30;;
70138;SDS011;57507;43.056;0.150;2023-07-30T07:37:11;0.30;;;0.30;;
70138;SDS011;57507;43.056;0.150;2023-07-30T07:39:40;1.00;;;0.47;;
70138;SDS011;57507;43.056;0.150;2023-07-30T07:42:06;1.17;;;0.52;;
70138;SDS011;57507;43.056;0.150;2023-07-30T07:44:32;0.95;;;0.60;;
70138;SDS011;57507;43.056;0.150;2023-07-30T07:46:58;1.25;;;0.80;;
70138;SDS011;57507;43.056;0.150;2023-07-30T07:49:24;0.90;;;0.60;;
70138;SDS011;57507;43.056;0.150;2023-07-30T07:51:50;0.80;;;0.50;;
70138;SDS011;57507;43.056;0.150;2023-07-30T07:54:16;1.45;;;0.60;;
70138;SDS011;57507;43.056;0.150;2023-07-30T07:56:42;1.52;;;0.60;;
70138;SDS011;57507;43.056;0.150;2023-07-30T07:59:08;0.80;;;0.50;;
70138;SDS011;57507;43.056;0.150;2023-07-30T08:01:34;0.80;;;0.60;;
70138;SDS011;57507;43.056;0.150;2023-07-30T08:04:00;0.60;;;0.40;;
70138;SDS011;57507;43.056;0.150;2023-07-30T08:06:26;0.75;;;0.60;;
70138;SDS011;57507;43.056;0.150;2023-07-30T08:08:52;0.65;;;0.47;;
70138;SDS011;57507;43.056;0.150;2023-07-30T08:11:18;1.60;;;0.70;;
70138;SDS011;57507;43.056;0.150;2023-07-30T08:13:44;0.47;;;0.40;;
70138;SDS011;57507;43.056;0.150;2023-07-30T08:16:11;0.32;;;0.32;;
70138;SDS011;57507;43.056;0.150;2023-07-30T08:18:37;0.95;;;0.50;;
70138;SDS011;57507;43.056;0.150;2023-07-30T08:21:03;0.90;;;0.47;;
70138;SDS011;57507;43.056;0.150;2023-07-30T08:23:29;0.63;;;0.40;;
70138;SDS011;57507;43.056;0.150;2023-07-30T08:25:55;0.63;;;0.35;;
70138;SDS011;57507;43.056;0.150;2023-07-30T08:28:21;0.40;;;0.40;;
70138;SDS011;57507;43.056;0.150;2023-07-30T08:30:47;1.08;;;0.30;;
70138;SDS011;57507;43.056;0.150;2023-07-30T08:33:13;0.25;;;0.25;;
70138;SDS011;57507;43.056;0.150;2023-07-30T08:35:39;0.60;;;0.30;;
70138;SDS011;57507;43.056;0.150;2023-07-30T08:38:05;0.10;;;0.10;;
70138;SDS011;57507;43.056;0.150;2023-07-30T08:40:31;0.30;;;0.30;;
70138;SDS011;57507;43.056;0.150;2023-07-30T08:42:58;0.70;;;0.43;;
70138;SDS011;57507;43.056;0.150;2023-07-30T08:45:24;0.45;;;0.20;;
70138;SDS011;57507;43.056;0.150;2023-07-30T08:47:50;0.68;;;0.30;;
70138;SDS011;57507;43.056;0.150;2023-07-30T08:50:16;0.55;;;0.40;;
70138;SDS011;57507;43.056;0.150;2023-07-30T08:52:42;0.80;;;0.32;;
70138;SDS011;57507;43.056;0.150;2023-07-30T08:55:08;0.88;;;0.40;;
70138;SDS011;57507;43.056;0.150;2023-07-30T08:57:36;0.30;;;0.30;;
70138;SDS011;57507;43.056;0.150;2023-07-30T09:00:04;1.58;;;0.45;;
70138;SDS011;57507;43.056;0.150;2023-07-30T09:02:54;1.15;;;0.60;;
70138;SDS011;57507;43.056;0.150;2023-07-30T09:05:19;0.60;;;0.50;;
70138;SDS011;57507;43.056;0.150;2023-07-30T09:07:45;1.15;;;0.30;;
70138;SDS011;57507;43.056;0.150;2023-07-30T09:10:12;1.52;;;0.40;;
70138;SDS011;57507;43.056;0.150;2023-07-30T09:12:38;0.20;;;0.20;;
70138;SDS011;57507;43.056;0.150;2023-07-30T09:15:05;1.20;;;0.38;;
70138;SDS011;57507;43.056;0.150;2023-07-30T09:17:31;0.60;;;0.40;;
70138;SDS011;57507;43.056;0.150;2023-07-30T09:20:04;1.02;;;0.50;;
70138;SDS011;57507;43.056;0.150;2023-07-30T09:22:34;1.23;;;0.52;;
70138;SDS011;57507;43.056;0.150;2023-07-30T09:25:05;0.45;;;0.43;;
70138;SDS011;57507;43.056;0.150;2023-07-30T09:27:32;0.90;;;0.65;;
70138;SDS011;57507;43.056;0.150;2023-07-30T09:29:58;2.95;;;1.02;;
70138;SDS011;57507;43.056;0.150;2023-07-30T09:32:28;1.73;;;0.55;;
70138;SDS011;57507;43.056;0.150;2023-07-30T09:34:55;0.73;;;0.57;;
70138;SDS011;57507;43.056;0.150;2023-07-30T09:37:21;0.93;;;0.70;;
70138;SDS011;57507;43.056;0.150;2023-07-30T09:39:47;0.75;;;0.70;;
70138;SDS011;57507;43.056;0.150;2023-07-30T09:42:13;1.42;;;0.60;;
70138;SDS011;57507;43.056;0.150;2023-07-30T09:44:40;0.88;;;0.75;;
70138;SDS011;57507;43.056;0.150;2023-07-30T09:47:09;1.20;;;0.50;;
70138;SDS011;57507;43.056;0.150;2023-07-30T09:49:38;1.58;;;0.80;;
70138;SDS011;57507;43.056;0.150;2023-07-30T09:52:05;0.85;;;0.68;;
70138;SDS011;57507;43.056;0.150;2023-07-30T09:54:31;2.17;;;1.00;;
70138;SDS011;57507;43.056;0.150;2023-07-30T09:56:58;1.58;;;0.75;;
70138;SDS011;57507;43.056;0.150;2023-07-30T09:59:24;1.17;;;0.75;;
70138;SDS011;57507;43.056;0.150;2023-07-30T10:01:50;0.82;;;0.60;;
70138;SDS011;57507;43.056;0.150;2023-07-30T10:04:20;2.15;;;0.70;;
70138;SDS011;57507;43.056;0.150;2023-07-30T10:06:51;1.10;;;0.80;;
70138;SDS011;57507;43.056;0.150;2023-07-30T10:09:19;1.55;;;0.93;;
70138;SDS011;57507;43.056;0.150;2023-07-30T10:11:46;2.03;;;1.20;;
70138;SDS011;57507;43.056;0.150;2023-07-30T10:14:14;0.73;;;0.70;;
70138;SDS011;57507;43.056;0.150;2023-07-30T10:16:49;1.45;;;0.75;;
70138;SDS011;57507;43.056;0.150;2023-07-30T10:19:15;1.02;;;0.93;;
70138;SDS011;57507;43.056;0.150;2023-07-30T10:21:41;1.45;;;0.95;;
70138;SDS011;57507;43.056;0.150;2023-07-30T10:24:08;2.05;;;1.35;;
70138;SDS011;57507;43.056;0.150;2023-07-30T10:26:35;1.20;;;0.73;;
70138;SDS011;57507;43.056;0.150;2023-07-30T10:29:18;2.10;;;1.10;;
70138;SDS011;57507;43.056;0.150;2023-07-30T10:31:54;1.30;;;0.80;;
70138;SDS011;57507;43.056;0.150;2023-07-30T10:34:20;1.77;;;1.00;;
70138;SDS011;57507;43.056;0.150;2023-07-30T10:36:47;5.72;;;1.40;;
70138;SDS011;57507;43.056;0.150;2023-07-30T10:39:17;5.50;;;1.60;;
70138;SDS011;57507;43.056;0.150;2023-07-30T10:41:44;6.40;;;1.23;;
70138;SDS011;57507;43.056;0.150;2023-07-30T10:44:17;3.38;;;1.30;;
70138;SDS011;57507;43.056;0.150;2023-07-30T10:49:10;2.72;;;1.15;;
70138;SDS011;57507;43.056;0.150;2023-07-30T10:51:37;4.97;;;1.08;;
70138;SDS011;57507;43.056;0.150;2023-07-30T10:54:05;1.83;;;1.15;;
70138;SDS011;57507;43.056;0.150;2023-07-30T10:56:32;1.60;;;1.00;;
70138;SDS011;57507;43.056;0.150;2023-07-30T10:59:00;1.45;;;1.13;;
70138;SDS011;57507;43.056;0.150;2023-07-30T11:01:29;3.75;;;1.10;;
70138;SDS011;57507;43.056;0.150;2023-07-30T11:03:55;1.80;;;0.80;;
70138;SDS011;57507;43.056;0.150;2023-07-30T11:06:22;2.05;;;0.90;;
70138;SDS011;57507;43.056;0.150;2023-07-30T11:08:48;1.88;;;0.90;;
70138;SDS011;57507;43.056;0.150;2023-07-30T11:11:14;2.65;;;0.70;;
70138;SDS011;57507;43.056;0.150;2023-07-30T11:13:41;2.50;;;0.77;;
70138;SDS011;57507;43.056;0.150;2023-07-30T11:16:08;2.15;;;0.80;;
70138;SDS011;57507;43.056;0.150;2023-07-30T11:18:36;0.55;;;0.47;;
70138;SDS011;57507;43.056;0.150;2023-07-30T11:21:03;0.60;;;0.50;;
70138;SDS011;57507;43.056;0.150;2023-07-30T11:23:29;1.10;;;0.63;;
70138;SDS011;57507;43.056;0.150;2023-07-30T11:25:55;3.25;;;0.63;;
70138;SDS011;57507;43.056;0.150;2023-07-30T11:30:55;0.50;;;0.47;;
70138;SDS011;57507;43.056;0.150;2023-07-30T11:33:21;1.17;;;0.57;;
70138;SDS011;57507;43.056;0.150;2023-07-30T11:35:47;1.92;;;0.65;;
70138;SDS011;57507;43.056;0.150;2023-07-30T11:38:13;1.23;;;0.80;;
70138;SDS011;57507;43.056;0.150;2023-07-30T11:40:39;1.65;;;0.80;;
70138;SDS011;57507;43.056;0.150;2023-07-30T11:43:05;0.85;;;0.70;;
70138;SDS011;57507;43.056;0.150;2023-07-30T11:45:31;2.47;;;0.80;;
70138;SDS011;57507;43.056;0.150;2023-07-30T11:48:07;1.52;;;1.08;;
70138;SDS011;57507;43.056;0.150;2023-07-30T11:53:09;2.58;;;1.20;;
70138;SDS011;57507;43.056;0.150;2023-07-30T11:55:39;3.25;;;1.27;;
70138;SDS011;57507;43.056;0.150;2023-07-30T11:58:05;2.17;;;1.40;;
70138;SDS011;57507;43.056;0.150;2023-07-30T12:00:31;1.30;;;0.90;;
70138;SDS011;57507;43.056;0.150;2023-07-30T12:03:05;1.83;;;1.30;;
70138;SDS011;57507;43.056;0.150;2023-07-30T12:05:35;1.13;;;0.90;;
70138;SDS011;57507;43.056;0.150;2023-07-30T12:08:05;3.45;;;1.10;;
70138;SDS011;57507;43.056;0.150;2023-07-30T12:10:42;1.02;;;0.93;;
70138;SDS011;57507;43.056;0.150;2023-07-30T12:13:14;1.00;;;0.82;;
70138;SDS011;57507;43.056;0.150;2023-07-30T12:15:42;0.77;;;0.77;;
70138;SDS011;57507;43.056;0.150;2023-07-30T12:18:08;1.20;;;0.77;;
70138;SDS011;57507;43.056;0.150;2023-07-30T12:20:34;1.05;;;0.80;;
70138;SDS011;57507;43.056;0.150;2023-07-30T12:23:01;1.02;;;0.90;;
70138;SDS011;57507;43.056;0.150;2023-07-30T12:25:29;1.75;;;0.80;;
70138;SDS011;57507;43.056;0.150;2023-07-30T12:27:55;0.88;;;0.77;;
70138;SDS011;57507;43.056;0.150;2023-07-30T12:30:21;0.90;;;0.60;;
70138;SDS011;57507;43.056;0.150;2023-07-30T12:32:48;1.33;;;0.75;;
70138;SDS011;57507;43.056;0.150;2023-07-30T12:35:14;0.65;;;0.60;;
70138;SDS011;57507;43.056;0.150;2023-07-30T12:37:40;0.82;;;0.80;;
70138;SDS011;57507;43.056;0.150;2023-07-30T12:40:06;0.65;;;0.60;;
70138;SDS011;57507;43.056;0.150;2023-07-30T12:42:33;1.00;;;0.63;;
70138;SDS011;57507;43.056;0.150;2023-07-30T12:44:59;1.25;;;0.52;;
70138;SDS011;57507;43.056;0.150;2023-07-30T12:47:25;0.63;;;0.43;;
70138;SDS011;57507;43.056;0.150;2023-07-30T12:49:51;0.73;;;0.60;;
70138;SDS011;57507;43.056;0.150;2023-07-30T12:52:17;0.55;;;0.55;;
70138;SDS011;57507;43.056;0.150;2023-07-30T12:54:43;1.05;;;0.55;;
70138;SDS011;57507;43.056;0.150;2023-07-30T12:57:09;0.55;;;0.50;;
70138;SDS011;57507;43.056;0.150;2023-07-30T12:59:35;0.45;;;0.43;;
70138;SDS011;57507;43.056;0.150;2023-07-30T13:02:02;0.60;;;0.60;;
70138;SDS011;57507;43.056;0.150;2023-07-30T13:04:28;0.75;;;0.52;;
70138;SDS011;57507;43.056;0.150;2023-07-30T13:06:54;2.17;;;0.70;;
70138;SDS011;57507;43.056;0.150;2023-07-30T13:09:20;1.73;;;0.70;;
70138;SDS011;57507;43.056;0.150;2023-07-30T13:11:46;1.05;;;0.50;;
70138;SDS011;57507;43.056;0.150;2023-07-30T13:14:13;0.50;;;0.50;;
70138;SDS011;57507;43.056;0.150;2023-07-30T13:16:39;0.60;;;0.55;;
70138;SDS011;57507;43.056;0.150;2023-07-30T13:19:05;0.77;;;0.68;;
70138;SDS011;57507;43.056;0.150;2023-07-30T13:21:31;0.60;;;0.55;;
70138;SDS011;57507;43.056;0.150;2023-07-30T13:23:57;0.60;;;0.60;;
70138;SDS011;57507;43.056;0.150;2023-07-30T13:26:23;0.60;;;0.60;;
70138;SDS011;57507;43.056;0.150;2023-07-30T13:28:49;0.95;;;0.60;;
70138;SDS011;57507;43.056;0.150;2023-07-30T13:31:15;1.25;;;0.70;;
70138;SDS011;57507;43.056;0.150;2023-07-30T13:33:41;0.73;;;0.52;;
70138;SDS011;57507;43.056;0.150;2023-07-30T13:36:07;1.23;;;0.80;;
70138;SDS011;57507;43.056;0.150;2023-07-30T13:38:33;0.85;;;0.60;;
70138;SDS011;57507;43.056;0.150;2023-07-30T13:40:59;1.15;;;0.80;;
70138;SDS011;57507;43.056;0.150;2023-07-30T13:43:25;0.95;;;0.50;;
70138;SDS011;57507;43.056;0.150;2023-07-30T13:45:51;0.68;;;0.57;;
70138;SDS011;57507;43.056;0.150;2023-07-30T13:48:18;1.08;;;0.57;;
70138;SDS011;57507;43.056;0.150;2023-07-30T13:50:44;0.10;;;0.10;;
70138;SDS011;57507;43.056;0.150;2023-07-30T13:53:13;0.40;;;0.40;;
70138;SDS011;57507;43.056;0.150;2023-07-30T13:55:39;0.40;;;0.30;;
70138;SDS011;57507;43.056;0.150;2023-07-30T13:58:11;0.20;;;0.20;;
70138;SDS011;57507;43.056;0.150;2023-07-30T14:00:40;0.20;;;0.20;;
70138;SDS011;57507;43.056;0.150;2023-07-30T14:03:09;0.20;;;0.20;;
70138;SDS011;57507;43.056;0.150;2023-07-30T14:05:37;0.30;;;0.20;;
70138;SDS011;57507;43.056;0.150;2023-07-30T14:08:12;0.20;;;0.20;;
70138;SDS011;57507;43.056;0.150;2023-07-30T14:10:39;0.10;;;0.05;;
70138;SDS011;57507;43.056;0.150;2023-07-30T14:13:05;0.22;;;0.22;;
70138;SDS011;57507;43.056;0.150;2023-07-30T14:15:31;0.10;;;0.10;;
70138;SDS011;57507;43.056;0.150;2023-07-30T14:17:57;0.22;;;0.20;;
70138;SDS011;57507;43.056;0.150;2023-07-30T14:20:23;0.45;;;0.17;;
70138;SDS011;57507;43.056;0.150;2023-07-30T14:22:50;0.10;;;0.10;;
70138;SDS011;57507;43.056;0.150;2023-07-30T14:25:27;0.47;;;0.20;;
70138;SDS011;57507;43.056;0.150;2023-07-30T14:27:56;0.10;;;0.10;;
70138;SDS011;57507;43.056;0.150;2023-07-30T14:30:22;0.43;;;0.13;;
70138;SDS011;57507;43.056;0.150;2023-07-30T14:32:48;0.10;;;0.10;;
70138;SDS011;57507;43.056;0.150;2023-07-30T14:35:14;0.20;;;0.10;;
70138;SDS011;57507;43.056;0.150;2023-07-30T14:37:40;0.20;;;0.20;;
70138;SDS011;57507;43.056;0.150;2023-07-30T14:40:06;0.10;;;0.10;;
70138;SDS011;57507;43.056;0.150;2023-07-30T14:42:33;0.15;;;0.15;;
70138;SDS011;57507;43.056;0.150;2023-07-30T14:44:59;0.13;;;0.10;;
70138;SDS011;57507;43.056;0.150;2023-07-30T14:47:25;0.10;;;0.10;;
70138;SDS011;57507;43.056;0.150;2023-07-30T14:49:51;0.20;;;0.10;;
70138;SDS011;57507;43.056;0.150;2023-07-30T14:52:20;0.10;;;0.10;;